sensor_id;sensor_type;location;lat;lon;timestamp;P1;durP1;ratioP1;P2;durP2;ratioP2
68224;SDS011;57497;43.322;21.932;2023-03-23T00:00:35;72.6;;;35.5;;
68224;SDS011;57497;43.322;21.932;2023-03-23T00:05:35;61.9;;;34.5;;
68224;SDS011;57497;43.322;21.932;2023-03-23T00:10:34;61.4;;;36.5;;
68224;SDS011;57497;43.322;21.932;2023-03-23T00:15:33;54.2;;;32.7;;
68224;SDS011;57497;43.322;21.932;2023-03-23T00:20:33;52.7;;;31.9;;
68224;SDS011;57497;43.322;21.932;2023-03-23T00:25:33;65.7;;;32.6;;
68224;SDS011;57497;43.322;21.932;2023-03-23T00:30:34;55.1;;;31.9;;
68224;SDS011;57497;43.322;21.932;2023-03-23T00:35:33;44.2;;;29.7;;
68224;SDS011;57497;43.322;21.932;2023-03-23T00:40:33;33.3;;;23.8;;
68224;SDS011;57497;43.322;21.932;2023-03-23T00:45:33;38.2;;;20.4;;
68224;SDS011;57497;43.322;21.932;2023-03-23T00:50:33;29.3;;;20;;
68224;SDS011;57497;43.322;21.932;2023-03-23T00:55:33;31;;;19.2;;
68224;SDS011;57497;43.322;21.932;2023-03-23T01:00:33;38.5;;;23.7;;
68224;SDS011;57497;43.322;21.932;2023-03-23T01:05:34;38.1;;;27.3;;
68224;SDS011;57497;43.322;21.932;2023-03-23T01:10:33;42.5;;;26.6;;
68224;SDS011;57497;43.322;21.932;2023-03-23T01:15:33;41.5;;;25.4;;
68224;SDS011;57497;43.322;21.932;2023-03-23T01:20:34;40;;;24.7;;
68224;SDS011;57497;43.322;21.932;2023-03-23T01:25:34;50.5;;;28.4;;
68224;SDS011;57497;43.322;21.932;2023-03-23T01:30:33;44.6;;;29;;
68224;SDS011;57497;43.322;21.932;2023-03-23T01:35:32;58.8;;;31.1;;
68224;SDS011;57497;43.322;21.932;2023-03-23T01:40:33;62.2;;;39.3;;
68224;SDS011;57497;43.322;21.932;2023-03-23T01:45:34;69;;;37.6;;
68224;SDS011;57497;43.322;21.932;2023-03-23T01:50:34;64.6;;;38.3;;
68224;SDS011;57497;43.322;21.932;2023-03-23T01:55:33;75.5;;;39.9;;
68224;SDS011;57497;43.322;21.932;2023-03-23T02:00:34;71.8;;;39;;
68224;SDS011;57497;43.322;21.932;2023-03-23T02:05:36;73.1;;;40.6;;
68224;SDS011;57497;43.322;21.932;2023-03-23T02:10:33;70.1;;;41.3;;
68224;SDS011;57497;43.322;21.932;2023-03-23T02:15:35;59.4;;;35.4;;
68224;SDS011;57497;43.322;21.932;2023-03-23T02:20:34;59.4;;;33.8;;
68224;SDS011;57497;43.322;21.932;2023-03-23T02:26:39;43.2;;;30.1;;
68224;SDS011;57497;43.322;21.932;2023-03-23T02:30:37;46.2;;;31.4;;
68224;SDS011;57497;43.322;21.932;2023-03-23T02:35:34;42.5;;;29.2;;
68224;SDS011;57497;43.322;21.932;2023-03-23T02:40:35;32.8;;;20.7;;
68224;SDS011;57497;43.322;21.932;2023-03-23T02:45:33;25.2;;;20.7;;
68224;SDS011;57497;43.322;21.932;2023-03-23T02:50:33;27.1;;;18.5;;
68224;SDS011;57497;43.322;21.932;2023-03-23T02:55:33;27.2;;;18.4;;
68224;SDS011;57497;43.322;21.932;2023-03-23T03:00:33;49.1;;;18.1;;
68224;SDS011;57497;43.322;21.932;2023-03-23T03:05:35;27.9;;;21.9;;
68224;SDS011;57497;43.322;21.932;2023-03-23T03:10:34;26.3;;;20.2;;
68224;SDS011;57497;43.322;21.932;2023-03-23T03:15:34;31.3;;;21;;
68224;SDS011;57497;43.322;21.932;2023-03-23T03:20:33;34.3;;;21.9;;
68224;SDS011;57497;43.322;21.932;2023-03-23T03:25:32;31.9;;;19.2;;
68224;SDS011;57497;43.322;21.932;2023-03-23T03:30:33;30.5;;;18.6;;
68224;SDS011;57497;43.322;21.932;2023-03-23T03:35:35;25.7;;;18.2;;
68224;SDS011;57497;43.322;21.932;2023-03-23T03:40:33;28;;;19.2;;
68224;SDS011;57497;43.322;21.932;2023-03-23T03:45:33;32.2;;;20.3;;
68224;SDS011;57497;43.322;21.932;2023-03-23T03:50:33;24.6;;;18.1;;
68224;SDS011;57497;43.322;21.932;2023-03-23T03:55:33;27.8;;;19;;
68224;SDS011;57497;43.322;21.932;2023-03-23T04:00:33;28.8;;;16.4;;
68224;SDS011;57497;43.322;21.932;2023-03-23T04:05:33;21.9;;;16.5;;
68224;SDS011;57497;43.322;21.932;2023-03-23T04:10:33;22.8;;;16.2;;
68224;SDS011;57497;43.322;21.932;2023-03-23T04:15:33;23.6;;;18.1;;
68224;SDS011;57497;43.322;21.932;2023-03-23T04:20:32;25.9;;;17.1;;
68224;SDS011;57497;43.322;21.932;2023-03-23T04:25:33;26.5;;;16.3;;
68224;SDS011;57497;43.322;21.932;2023-03-23T04:30:33;31.2;;;17.8;;
68224;SDS011;57497;43.322;21.932;2023-03-23T04:35:33;31.1;;;14;;
68224;SDS011;57497;43.322;21.932;2023-03-23T04:40:35;18.2;;;12.5;;
68224;SDS011;57497;43.322;21.932;2023-03-23T04:45:33;26.3;;;13.4;;
68224;SDS011;57497;43.322;21.932;2023-03-23T04:50:33;32.3;;;13.8;;
68224;SDS011;57497;43.322;21.932;2023-03-23T04:55:34;21.8;;;12.7;;
68224;SDS011;57497;43.322;21.932;2023-03-23T05:00:34;20.3;;;13.4;;
68224;SDS011;57497;43.322;21.932;2023-03-23T05:05:34;23.2;;;13.4;;
68224;SDS011;57497;43.322;21.932;2023-03-23T05:10:33;23.4;;;14.5;;
68224;SDS011;57497;43.322;21.932;2023-03-23T05:15:33;30.9;;;11.4;;
68224;SDS011;57497;43.322;21.932;2023-03-23T05:20:33;25.3;;;13.9;;
68224;SDS011;57497;43.322;21.932;2023-03-23T05:25:33;23;;;12.2;;
68224;SDS011;57497;43.322;21.932;2023-03-23T05:30:33;17.5;;;12.4;;
68224;SDS011;57497;43.322;21.932;2023-03-23T05:35:32;20.9;;;13.5;;
68224;SDS011;57497;43.322;21.932;2023-03-23T05:40:33;29.9;;;18.5;;
68224;SDS011;57497;43.322;21.932;2023-03-23T05:45:33;26.2;;;15.7;;
68224;SDS011;57497;43.322;21.932;2023-03-23T05:50:33;23.9;;;17.1;;
68224;SDS011;57497;43.322;21.932;2023-03-23T05:55:33;31.1;;;20.2;;
68224;SDS011;57497;43.322;21.932;2023-03-23T06:00:33;31.6;;;19.5;;
68224;SDS011;57497;43.322;21.932;2023-03-23T06:05:33;42.3;;;28.7;;
68224;SDS011;57497;43.322;21.932;2023-03-23T06:10:33;42.1;;;21.6;;
68224;SDS011;57497;43.322;21.932;2023-03-23T06:15:33;41.6;;;21.9;;
68224;SDS011;57497;43.322;21.932;2023-03-23T06:20:32;39.6;;;20.6;;
68224;SDS011;57497;43.322;21.932;2023-03-23T06:25:33;34.2;;;20.6;;
68224;SDS011;57497;43.322;21.932;2023-03-23T06:30:33;22.8;;;18;;
68224;SDS011;57497;43.322;21.932;2023-03-23T06:35:33;29.5;;;20.9;;
68224;SDS011;57497;43.322;21.932;2023-03-23T06:40:33;28.4;;;20;;
68224;SDS011;57497;43.322;21.932;2023-03-23T06:45:32;30.5;;;18.1;;
68224;SDS011;57497;43.322;21.932;2023-03-23T06:50:33;22.3;;;15.6;;
68224;SDS011;57497;43.322;21.932;2023-03-23T06:55:33;19.9;;;14.1;;
68224;SDS011;57497;43.322;21.932;2023-03-23T07:00:33;25.6;;;16.8;;
68224;SDS011;57497;43.322;21.932;2023-03-23T07:05:34;26.8;;;17.8;;
68224;SDS011;57497;43.322;21.932;2023-03-23T07:10:33;20.4;;;15.6;;
68224;SDS011;57497;43.322;21.932;2023-03-23T07:15:33;27.7;;;18.3;;
68224;SDS011;57497;43.322;21.932;2023-03-23T07:20:33;21.7;;;15.6;;
68224;SDS011;57497;43.322;21.932;2023-03-23T07:25:33;20.6;;;15.8;;
68224;SDS011;57497;43.322;21.932;2023-03-23T07:30:33;26;;;18.3;;
68224;SDS011;57497;43.322;21.932;2023-03-23T07:35:33;20.6;;;14.5;;
68224;SDS011;57497;43.322;21.932;2023-03-23T07:40:33;19.8;;;14.9;;
68224;SDS011;57497;43.322;21.932;2023-03-23T07:45:33;21.6;;;14.1;;
68224;SDS011;57497;43.322;21.932;2023-03-23T07:50:32;13.2;;;10.8;;
68224;SDS011;57497;43.322;21.932;2023-03-23T07:55:33;16.1;;;11.2;;
68224;SDS011;57497;43.322;21.932;2023-03-23T08:00:34;13.7;;;10.3;;
68224;SDS011;57497;43.322;21.932;2023-03-23T08:05:34;18.8;;;11.4;;
68224;SDS011;57497;43.322;21.932;2023-03-23T08:10:33;16;;;11.3;;
68224;SDS011;57497;43.322;21.932;2023-03-23T08:15:33;11.9;;;9.6;;
68224;SDS011;57497;43.322;21.932;2023-03-23T08:20:32;17.3;;;11.2;;
68224;SDS011;57497;43.322;21.932;2023-03-23T08:25:33;18.2;;;11.7;;
68224;SDS011;57497;43.322;21.932;2023-03-23T08:30:33;16;;;12.3;;
68224;SDS011;57497;43.322;21.932;2023-03-23T08:35:33;25.3;;;15.6;;
68224;SDS011;57497;43.322;21.932;2023-03-23T08:40:33;16.3;;;12.3;;
68224;SDS011;57497;43.322;21.932;2023-03-23T08:45:33;11.2;;;9.3;;
68224;SDS011;57497;43.322;21.932;2023-03-23T08:50:33;12.4;;;10.6;;
68224;SDS011;57497;43.322;21.932;2023-03-23T08:55:33;14;;;11.6;;
68224;SDS011;57497;43.322;21.932;2023-03-23T09:00:33;14.4;;;10.3;;
68224;SDS011;57497;43.322;21.932;2023-03-23T09:05:34;22.4;;;9.7;;
68224;SDS011;57497;43.322;21.932;2023-03-23T09:10:33;12;;;10.4;;
68224;SDS011;57497;43.322;21.932;2023-03-23T09:15:33;22.9;;;9.9;;
68224;SDS011;57497;43.322;21.932;2023-03-23T09:20:33;16.8;;;12.2;;
68224;SDS011;57497;43.322;21.932;2023-03-23T09:25:33;16.3;;;11.2;;
68224;SDS011;57497;43.322;21.932;2023-03-23T09:30:33;20;;;11.8;;
68224;SDS011;57497;43.322;21.932;2023-03-23T09:35:34;20.1;;;13.8;;
68224;SDS011;57497;43.322;21.932;2023-03-23T09:40:35;24.9;;;10.9;;
68224;SDS011;57497;43.322;21.932;2023-03-23T09:45:35;12.2;;;10.3;;
68224;SDS011;57497;43.322;21.932;2023-03-23T09:50:33;13.9;;;12;;
68224;SDS011;57497;43.322;21.932;2023-03-23T09:55:32;15.2;;;12.1;;
68224;SDS011;57497;43.322;21.932;2023-03-23T10:00:34;15.9;;;9.3;;
68224;SDS011;57497;43.322;21.932;2023-03-23T10:05:34;12.2;;;9.4;;
68224;SDS011;57497;43.322;21.932;2023-03-23T10:10:36;14.7;;;10.6;;
68224;SDS011;57497;43.322;21.932;2023-03-23T10:15:34;12.6;;;9.7;;
68224;SDS011;57497;43.322;21.932;2023-03-23T10:20:39;14.5;;;10.7;;
68224;SDS011;57497;43.322;21.932;2023-03-23T10:25:34;13.4;;;10.8;;
68224;SDS011;57497;43.322;21.932;2023-03-23T10:30:34;10.9;;;9.7;;
68224;SDS011;57497;43.322;21.932;2023-03-23T10:35:33;13;;;10.4;;
68224;SDS011;57497;43.322;21.932;2023-03-23T10:40:33;11.4;;;8.1;;
68224;SDS011;57497;43.322;21.932;2023-03-23T10:45:33;9.8;;;8.8;;
68224;SDS011;57497;43.322;21.932;2023-03-23T10:50:34;18.6;;;10.2;;
68224;SDS011;57497;43.322;21.932;2023-03-23T10:55:36;14.8;;;9.1;;
68224;SDS011;57497;43.322;21.932;2023-03-23T11:00:39;13.9;;;9.7;;
68224;SDS011;57497;43.322;21.932;2023-03-23T11:05:35;10;;;7.8;;
68224;SDS011;57497;43.322;21.932;2023-03-23T11:10:35;18.3;;;7.6;;
68224;SDS011;57497;43.322;21.932;2023-03-23T11:15:33;18.2;;;8.1;;
68224;SDS011;57497;43.322;21.932;2023-03-23T11:20:35;10.9;;;6.4;;
68224;SDS011;57497;43.322;21.932;2023-03-23T11:25:32;9.4;;;7.6;;
68224;SDS011;57497;43.322;21.932;2023-03-23T11:30:33;10.9;;;8.6;;
68224;SDS011;57497;43.322;21.932;2023-03-23T11:35:33;8.6;;;7;;
68224;SDS011;57497;43.322;21.932;2023-03-23T11:40:33;8.4;;;6.6;;
68224;SDS011;57497;43.322;21.932;2023-03-23T11:45:34;9.2;;;6.5;;
68224;SDS011;57497;43.322;21.932;2023-03-23T11:50:33;7.4;;;6;;
68224;SDS011;57497;43.322;21.932;2023-03-23T11:55:34;10.5;;;8;;
68224;SDS011;57497;43.322;21.932;2023-03-23T12:00:34;7.4;;;6.7;;
68224;SDS011;57497;43.322;21.932;2023-03-23T12:05:35;8.9;;;5.5;;
68224;SDS011;57497;43.322;21.932;2023-03-23T12:10:34;8.4;;;6.5;;
68224;SDS011;57497;43.322;21.932;2023-03-23T12:15:34;7.4;;;5.5;;
68224;SDS011;57497;43.322;21.932;2023-03-23T12:20:37;9.4;;;5.9;;
68224;SDS011;57497;43.322;21.932;2023-03-23T12:26:38;9.3;;;6;;
68224;SDS011;57497;43.322;21.932;2023-03-23T12:30:35;10.8;;;5.7;;
68224;SDS011;57497;43.322;21.932;2023-03-23T12:35:34;6.7;;;5.4;;
68224;SDS011;57497;43.322;21.932;2023-03-23T12:40:36;6.5;;;5.2;;
68224;SDS011;57497;43.322;21.932;2023-03-23T12:46:09;14.2;;;7.4;;
68224;SDS011;57497;43.322;21.932;2023-03-23T12:50:33;10.7;;;7.1;;
68224;SDS011;57497;43.322;21.932;2023-03-23T12:55:34;6.5;;;5.4;;
68224;SDS011;57497;43.322;21.932;2023-03-23T13:00:38;8.3;;;5.8;;
68224;SDS011;57497;43.322;21.932;2023-03-23T13:05:37;18.9;;;5.7;;
68224;SDS011;57497;43.322;21.932;2023-03-23T13:10:34;8.3;;;5.6;;
68224;SDS011;57497;43.322;21.932;2023-03-23T13:15:34;7.6;;;5.8;;
68224;SDS011;57497;43.322;21.932;2023-03-23T13:20:38;10.9;;;4.8;;
68224;SDS011;57497;43.322;21.932;2023-03-23T13:25:40;30.9;;;6.4;;
68224;SDS011;57497;43.322;21.932;2023-03-23T13:30:33;8.8;;;5;;
68224;SDS011;57497;43.322;21.932;2023-03-23T13:35:34;6;;;5.1;;
68224;SDS011;57497;43.322;21.932;2023-03-23T13:40:33;5.2;;;4.3;;
68224;SDS011;57497;43.322;21.932;2023-03-23T13:45:42;8.2;;;4.7;;
68224;SDS011;57497;43.322;21.932;2023-03-23T13:50:43;13.9;;;8.2;;
68224;SDS011;57497;43.322;21.932;2023-03-23T13:55:41;4.9;;;3.8;;
68224;SDS011;57497;43.322;21.932;2023-03-23T14:00:35;8;;;4.3;;
68224;SDS011;57497;43.322;21.932;2023-03-23T14:05:35;6.1;;;5.5;;
68224;SDS011;57497;43.322;21.932;2023-03-23T14:10:34;6.1;;;4.6;;
68224;SDS011;57497;43.322;21.932;2023-03-23T14:15:40;9.8;;;9;;
68224;SDS011;57497;43.322;21.932;2023-03-23T14:20:33;12.9;;;11.9;;
68224;SDS011;57497;43.322;21.932;2023-03-23T14:25:33;19.4;;;17.6;;
68224;SDS011;57497;43.322;21.932;2023-03-23T14:30:34;23.5;;;21.8;;
68224;SDS011;57497;43.322;21.932;2023-03-23T14:35:34;31.9;;;29.8;;
68224;SDS011;57497;43.322;21.932;2023-03-23T14:40:33;33.4;;;28.7;;
68224;SDS011;57497;43.322;21.932;2023-03-23T14:45:33;44.7;;;42;;
68224;SDS011;57497;43.322;21.932;2023-03-23T14:50:37;44.2;;;41.4;;
68224;SDS011;57497;43.322;21.932;2023-03-23T14:55:33;63.3;;;59.6;;
68224;SDS011;57497;43.322;21.932;2023-03-23T15:00:34;58.1;;;54.6;;
68224;SDS011;57497;43.322;21.932;2023-03-23T15:05:34;353;;;81.6;;
68224;SDS011;57497;43.322;21.932;2023-03-23T15:10:33;1999.9;;;999.9;;
68224;SDS011;57497;43.322;21.932;2023-03-23T15:15:33;1999.9;;;999.9;;
68224;SDS011;57497;43.322;21.932;2023-03-23T15:20:45;1999.9;;;999.9;;
68224;SDS011;57497;43.322;21.932;2023-03-23T15:25:33;1999.9;;;999.9;;
68224;SDS011;57497;43.322;21.932;2023-03-23T15:30:35;1999.9;;;999.9;;
68224;SDS011;57497;43.322;21.932;2023-03-23T15:35:34;1999.9;;;999.9;;
68224;SDS011;57497;43.322;21.932;2023-03-23T15:40:34;79.4;;;74.3;;
68224;SDS011;57497;43.322;21.932;2023-03-23T15:45:33;49.8;;;46.4;;
68224;SDS011;57497;43.322;21.932;2023-03-23T15:50:33;22.4;;;20.5;;
68224;SDS011;57497;43.322;21.932;2023-03-23T15:55:35;11.2;;;10.3;;
68224;SDS011;57497;43.322;21.932;2023-03-23T16:00:34;11.3;;;10.4;;
68224;SDS011;57497;43.322;21.932;2023-03-23T16:05:34;11;;;10.1;;
68224;SDS011;57497;43.322;21.932;2023-03-23T16:10:33;13.7;;;12.4;;
68224;SDS011;57497;43.322;21.932;2023-03-23T16:15:33;12.2;;;11.1;;
68224;SDS011;57497;43.322;21.932;2023-03-23T16:20:33;15.1;;;8.3;;
68224;SDS011;57497;43.322;21.932;2023-03-23T16:25:32;16.1;;;7.9;;
68224;SDS011;57497;43.322;21.932;2023-03-23T16:30:33;14.4;;;8;;
68224;SDS011;57497;43.322;21.932;2023-03-23T16:35:33;19.5;;;8.1;;
68224;SDS011;57497;43.322;21.932;2023-03-23T16:40:33;23.3;;;11.6;;
68224;SDS011;57497;43.322;21.932;2023-03-23T16:45:33;14.7;;;7.7;;
68224;SDS011;57497;43.322;21.932;2023-03-23T16:50:33;9.9;;;7.3;;
68224;SDS011;57497;43.322;21.932;2023-03-23T16:55:33;8;;;6.1;;
68224;SDS011;57497;43.322;21.932;2023-03-23T17:00:34;8.5;;;6.8;;
68224;SDS011;57497;43.322;21.932;2023-03-23T17:05:34;9.1;;;7;;
68224;SDS011;57497;43.322;21.932;2023-03-23T17:10:33;13.5;;;8.5;;
68224;SDS011;57497;43.322;21.932;2023-03-23T17:15:35;14.9;;;9.9;;
68224;SDS011;57497;43.322;21.932;2023-03-23T17:20:33;16.7;;;9.9;;
68224;SDS011;57497;43.322;21.932;2023-03-23T17:25:32;15.1;;;11.7;;
68224;SDS011;57497;43.322;21.932;2023-03-23T17:30:33;22.7;;;14.6;;
68224;SDS011;57497;43.322;21.932;2023-03-23T17:35:33;21;;;14.3;;
68224;SDS011;57497;43.322;21.932;2023-03-23T17:40:33;19.3;;;12.9;;
68224;SDS011;57497;43.322;21.932;2023-03-23T17:45:33;18.4;;;12.8;;
68224;SDS011;57497;43.322;21.932;2023-03-23T17:50:33;18.8;;;12.9;;
68224;SDS011;57497;43.322;21.932;2023-03-23T17:55:33;15;;;10.1;;
68224;SDS011;57497;43.322;21.932;2023-03-23T18:00:34;15.4;;;10.4;;
68224;SDS011;57497;43.322;21.932;2023-03-23T18:05:34;16.3;;;10.4;;
68224;SDS011;57497;43.322;21.932;2023-03-23T18:10:34;10.9;;;8.5;;
68224;SDS011;57497;43.322;21.932;2023-03-23T18:15:33;12;;;10;;
68224;SDS011;57497;43.322;21.932;2023-03-23T18:20:33;16.7;;;11.8;;
68224;SDS011;57497;43.322;21.932;2023-03-23T18:25:33;22.7;;;15.1;;
68224;SDS011;57497;43.322;21.932;2023-03-23T18:30:33;16.8;;;10.6;;
68224;SDS011;57497;43.322;21.932;2023-03-23T18:35:33;18.6;;;13.4;;
68224;SDS011;57497;43.322;21.932;2023-03-23T18:40:33;13.5;;;9.6;;
68224;SDS011;57497;43.322;21.932;2023-03-23T18:45:33;35.4;;;11.7;;
68224;SDS011;57497;43.322;21.932;2023-03-23T18:50:33;19.1;;;12.3;;
68224;SDS011;57497;43.322;21.932;2023-03-23T18:55:32;23;;;10.5;;
68224;SDS011;57497;43.322;21.932;2023-03-23T19:00:34;16.1;;;11.4;;
68224;SDS011;57497;43.322;21.932;2023-03-23T19:05:34;20.9;;;13.1;;
68224;SDS011;57497;43.322;21.932;2023-03-23T19:10:34;27.1;;;16.2;;
68224;SDS011;57497;43.322;21.932;2023-03-23T19:15:35;14.8;;;11.6;;
68224;SDS011;57497;43.322;21.932;2023-03-23T19:20:33;24.7;;;14.3;;
68224;SDS011;57497;43.322;21.932;2023-03-23T19:25:33;37;;;18.3;;
68224;SDS011;57497;43.322;21.932;2023-03-23T19:30:33;29;;;18.8;;
68224;SDS011;57497;43.322;21.932;2023-03-23T19:35:33;37.1;;;21.8;;
68224;SDS011;57497;43.322;21.932;2023-03-23T19:40:33;24.7;;;17.9;;
68224;SDS011;57497;43.322;21.932;2023-03-23T19:45:32;22.9;;;16.2;;
68224;SDS011;57497;43.322;21.932;2023-03-23T19:50:33;35.5;;;22.1;;
68224;SDS011;57497;43.322;21.932;2023-03-23T19:55:32;34.4;;;21.3;;
68224;SDS011;57497;43.322;21.932;2023-03-23T20:00:34;26.2;;;17.4;;
68224;SDS011;57497;43.322;21.932;2023-03-23T20:05:34;40.6;;;17.3;;
68224;SDS011;57497;43.322;21.932;2023-03-23T20:10:33;34.8;;;15.8;;
68224;SDS011;57497;43.322;21.932;2023-03-23T20:15:33;30.9;;;18.7;;
68224;SDS011;57497;43.322;21.932;2023-03-23T20:20:33;36.9;;;21.8;;
68224;SDS011;57497;43.322;21.932;2023-03-23T20:25:32;29.3;;;21;;
68224;SDS011;57497;43.322;21.932;2023-03-23T20:30:33;32.3;;;19.5;;
68224;SDS011;57497;43.322;21.932;2023-03-23T20:35:33;40.5;;;21.4;;
68224;SDS011;57497;43.322;21.932;2023-03-23T20:40:33;28.1;;;18.6;;
68224;SDS011;57497;43.322;21.932;2023-03-23T20:45:33;36.5;;;22.8;;
68224;SDS011;57497;43.322;21.932;2023-03-23T20:50:33;32.2;;;19.2;;
68224;SDS011;57497;43.322;21.932;2023-03-23T20:55:33;26.8;;;17;;
68224;SDS011;57497;43.322;21.932;2023-03-23T21:00:33;25.4;;;18.9;;
68224;SDS011;57497;43.322;21.932;2023-03-23T21:05:34;29;;;17.9;;
68224;SDS011;57497;43.322;21.932;2023-03-23T21:10:33;27;;;18.6;;
68224;SDS011;57497;43.322;21.932;2023-03-23T21:15:33;26.2;;;18.8;;
68224;SDS011;57497;43.322;21.932;2023-03-23T21:20:33;26.7;;;18.6;;
68224;SDS011;57497;43.322;21.932;2023-03-23T21:25:33;33.2;;;23.1;;
68224;SDS011;57497;43.322;21.932;2023-03-23T21:30:33;34.7;;;19.4;;
68224;SDS011;57497;43.322;21.932;2023-03-23T21:35:33;23.8;;;17.2;;
68224;SDS011;57497;43.322;21.932;2023-03-23T21:40:33;25;;;14.7;;
68224;SDS011;57497;43.322;21.932;2023-03-23T21:45:32;36.6;;;15.4;;
68224;SDS011;57497;43.322;21.932;2023-03-23T21:50:33;18;;;12.5;;
68224;SDS011;57497;43.322;21.932;2023-03-23T21:55:33;17.2;;;12.3;;
68224;SDS011;57497;43.322;21.932;2023-03-23T22:00:34;36;;;17;;
68224;SDS011;57497;43.322;21.932;2023-03-23T22:05:33;20.7;;;15.1;;
68224;SDS011;57497;43.322;21.932;2023-03-23T22:10:33;23.1;;;16.6;;
68224;SDS011;57497;43.322;21.932;2023-03-23T22:15:33;31.5;;;18.2;;
68224;SDS011;57497;43.322;21.932;2023-03-23T22:20:33;28.2;;;17.4;;
68224;SDS011;57497;43.322;21.932;2023-03-23T22:25:33;25.7;;;16.8;;
68224;SDS011;57497;43.322;21.932;2023-03-23T22:30:33;33.3;;;21.4;;
68224;SDS011;57497;43.322;21.932;2023-03-23T22:35:33;28.4;;;20.7;;
68224;SDS011;57497;43.322;21.932;2023-03-23T22:40:32;24.7;;;16.4;;
68224;SDS011;57497;43.322;21.932;2023-03-23T22:45:33;19.3;;;15.1;;
68224;SDS011;57497;43.322;21.932;2023-03-23T22:50:33;23;;;15.2;;
68224;SDS011;57497;43.322;21.932;2023-03-23T22:55:32;26.2;;;16.7;;
68224;SDS011;57497;43.322;21.932;2023-03-23T23:00:35;32.7;;;19.8;;
68224;SDS011;57497;43.322;21.932;2023-03-23T23:05:34;25.7;;;18.9;;
68224;SDS011;57497;43.322;21.932;2023-03-23T23:40:33;35.7;;;20.5;;
68224;SDS011;57497;43.322;21.932;2023-03-23T23:45:33;38.1;;;17.3;;
68224;SDS011;57497;43.322;21.932;2023-03-23T23:50:32;27.7;;;18.6;;
68224;SDS011;57497;43.322;21.932;2023-03-23T23:55:34;32.5;;;18.7;;
